Melbourne Village, Florida
Current Conditions -  °F | °C
As of 8:53 AM on Friday 24 Oct 2014 (Local Time) from KMLB Reporting Station
Scattered Clouds Scattered Clouds  
Wind Chill: 77°   Ceiling: Unl
Heat Index: 79°   Visibility: 10mi
Dew Point: 58°   Wind: 12mph
Humidity: 52%   Direction: 40°NE
Pressure: 29.96"   Gusts: NA
Location:  28.0719°N, 80.7009°W
Report Text: KMLB 241253Z 04010KT 10SM SCT045 25/14 A2996 RMK AO2 SLP145 T02500144
Loading
Personal Weather Stations






























Interactive Weather Map
Tropical Storm Tracking
New forecast layout! Learn more

10-Day Weather Forecast

Advertisements
Track Severe Weather on mobile